Time;durP1;ratioP1;P1;durP2;ratioP2;P2;SDS_P1;SDS_P2;PMS_P1;PMS_P2;Temp;Humidity;BMP_temperature;BMP_pressure;BME280_temperature;BME280_humidity;BME280_pressure;Samples;Min_cycle;Max_cycle;Signal;HPM_P1;HPM_P2
2023/10/03 00:01:27;;;;;;;32.80;12.63;;;18.60;99.90;;;;;;4214077;28;20434;-80
2023/10/03 00:03:28;;;;;;;30.83;13.10;;;18.30;99.90;;;;;;4196275;28;20120;-80
2023/10/03 00:05:31;;;;;;;30.10;13.43;;;18.50;99.90;;;;;;4196363;28;20037;-80
2023/10/03 00:07:32;;;;;;;32.28;14.48;;;18.20;99.90;;;;;;4195860;28;20061;-80
2023/10/03 00:09:33;;;;;;;28.95;13.48;;;18.40;99.90;;;;;;4213698;28;20493;-80
2023/10/03 00:11:35;;;;;;;31.27;13.50;;;18.30;99.90;;;;;;4214021;28;20040;-80
2023/10/03 00:13:35;;;;;;;30.50;12.43;;;18.20;99.90;;;;;;4214106;28;20051;-80
2023/10/03 00:15:40;;;;;;;28.70;12.65;;;18.40;99.90;;;;;;4213731;28;20445;-80
2023/10/03 00:17:40;;;;;;;29.02;13.73;;;18.40;99.90;;;;;;4214034;28;20036;-80
2023/10/03 00:19:41;;;;;;;31.48;14.23;;;18.20;99.90;;;;;;4213320;28;20047;-80
2023/10/03 00:21:42;;;;;;;33.47;13.63;;;18.40;99.90;;;;;;4217014;28;20503;-80
2023/10/03 00:23:42;;;;;;;32.58;12.00;;;18.40;99.90;;;;;;4217331;28;20445;-80
2023/10/03 00:25:44;;;;;;;30.25;12.45;;;18.40;99.90;;;;;;4217172;28;20438;-80
2023/10/03 00:27:52;;;;;;;31.73;13.32;;;18.40;99.90;;;;;;4199152;28;20431;-80
2023/10/03 00:29:52;;;;;;;27.70;11.93;;;18.30;99.90;;;;;;4199195;28;20052;-80
2023/10/03 00:31:54;;;;;;;33.83;13.02;;;18.30;99.90;;;;;;4216620;28;20069;-80
2023/10/03 00:33:55;;;;;;;34.03;13.02;;;18.30;99.90;;;;;;4217105;28;20048;-80
2023/10/03 00:35:55;;;;;;;33.95;13.13;;;18.50;99.90;;;;;;4199047;28;20054;-80
2023/10/03 00:37:56;;;;;;;34.88;13.88;;;18.40;99.90;;;;;;4216624;28;20048;-80
2023/10/03 00:39:58;;;;;;;32.20;14.25;;;18.10;99.90;;;;;;4217163;28;20123;-80
2023/10/03 00:42:01;;;;;;;34.63;13.90;;;18.20;99.90;;;;;;4216991;28;20044;-80
2023/10/03 00:44:04;;;;;;;39.40;16.08;;;18.30;99.90;;;;;;4217056;28;20043;-80
2023/10/03 00:46:04;;;;;;;36.72;13.90;;;18.30;99.90;;;;;;4216750;28;20150;-80
2023/10/03 00:48:07;;;;;;;37.05;14.90;;;18.20;99.90;;;;;;4216936;28;20508;-80
2023/10/03 00:50:09;;;;;;;34.08;14.23;;;18.20;99.90;;;;;;4216709;28;20411;-79
2023/10/03 00:52:10;;;;;;;32.92;14.32;;;18.20;99.90;;;;;;4198615;28;20056;-80
2023/10/03 00:54:11;;;;;;;37.85;14.25;;;18.40;99.90;;;;;;4216343;28;20456;-80
2023/10/03 00:56:15;;;;;;;33.65;14.05;;;18.10;99.90;;;;;;4216867;28;20036;-80
2023/10/03 01:00:18;;;;;;;33.38;14.05;;;18.20;99.90;;;;;;4216707;28;20044;-79
2023/10/03 01:02:21;;;;;;;29.40;13.27;;;18.20;99.90;;;;;;4216402;28;20134;-80
2023/10/03 01:04:30;;;;;;;34.88;14.02;;;18.20;99.90;;;;;;4198581;28;20044;-80
2023/10/03 01:06:31;;;;;;;32.42;14.35;;;18.20;99.90;;;;;;4216571;28;20392;-80
2023/10/03 01:08:35;;;;;;;35.70;13.45;;;18.30;99.90;;;;;;4216328;28;20071;-80
2023/10/03 01:10:37;;;;;;;34.05;13.15;;;18.30;99.90;;;;;;4216335;28;20036;-80
2023/10/03 01:12:37;;;;;;;33.55;12.90;;;18.00;99.90;;;;;;4216690;28;20040;-80
2023/10/03 01:14:39;;;;;;;35.17;15.25;;;18.10;99.90;;;;;;4198639;28;20045;-82
2023/10/03 01:16:41;;;;;;;36.72;13.48;;;18.00;99.90;;;;;;4216260;28;20043;-80
2023/10/03 01:18:43;;;;;;;32.30;13.23;;;18.20;99.90;;;;;;4216418;28;20480;-81
2023/10/03 01:20:48;;;;;;;36.10;14.30;;;18.20;99.90;;;;;;4215939;28;20044;-79
2023/10/03 01:22:52;;;;;;;32.17;13.27;;;18.20;99.90;;;;;;4216351;28;20071;-80
2023/10/03 01:24:55;;;;;;;34.08;13.77;;;18.10;99.90;;;;;;4215967;28;20408;-80
2023/10/03 01:26:55;;;;;;;32.38;13.38;;;18.00;99.90;;;;;;4216313;28;20040;-80
2023/10/03 01:28:56;;;;;;;30.85;13.35;;;18.00;99.90;;;;;;4216304;28;20044;-80
2023/10/03 01:30:57;;;;;;;34.75;13.30;;;18.10;99.90;;;;;;4215777;28;20118;-80
2023/10/03 01:32:58;;;;;;;39.42;13.82;;;17.90;99.90;;;;;;4215301;28;20040;-80
2023/10/03 01:35:07;;;;;;;32.88;13.82;;;17.90;99.90;;;;;;4216167;28;20136;-80
2023/10/03 01:37:08;;;;;;;36.67;15.43;;;18.00;99.90;;;;;;4216246;28;20495;-80
2023/10/03 01:39:11;;;;;;;37.20;14.75;;;17.80;99.90;;;;;;4216094;28;20040;-80
2023/10/03 01:41:13;;;;;;;33.20;13.77;;;17.80;99.90;;;;;;4216131;28;20111;-80
2023/10/03 01:43:13;;;;;;;32.05;12.52;;;17.80;99.90;;;;;;4215757;28;20066;-80
2023/10/03 01:45:20;;;;;;;35.10;14.30;;;17.90;99.90;;;;;;4198014;28;20127;-80
2023/10/03 01:47:21;;;;;;;35.50;14.52;;;17.70;99.90;;;;;;4216040;28;20047;-80
2023/10/03 01:49:25;;;;;;;35.33;14.65;;;17.70;99.90;;;;;;4215649;28;20036;-80
2023/10/03 01:51:26;;;;;;;35.03;13.95;;;17.60;99.90;;;;;;4215530;28;20044;-80
2023/10/03 01:53:27;;;;;;;34.60;14.30;;;17.60;99.90;;;;;;4216020;28;20052;-80
2023/10/03 01:55:28;;;;;;;36.72;13.57;;;17.60;99.90;;;;;;4215888;28;20046;-80
2023/10/03 01:57:29;;;;;;;34.00;13.95;;;17.50;99.90;;;;;;4181391;28;20049;-80
2023/10/03 01:59:30;;;;;;;32.28;13.85;;;17.50;99.90;;;;;;4215777;28;20526;-80
2023/10/03 02:01:34;;;;;;;34.45;13.15;;;17.60;99.90;;;;;;4198090;28;20040;-82
2023/10/03 02:03:35;;;;;;;33.95;13.25;;;17.60;99.90;;;;;;4215915;28;20548;-80
2023/10/03 02:05:38;;;;;;;35.53;13.80;;;17.50;99.90;;;;;;4215086;28;20048;-80
2023/10/03 02:07:39;;;;;;;37.90;15.63;;;17.50;99.90;;;;;;4215712;28;20549;-80
2023/10/03 02:09:40;;;;;;;29.83;13.30;;;17.50;99.90;;;;;;4215611;28;20072;-80
2023/10/03 02:11:41;;;;;;;31.10;12.55;;;17.60;99.90;;;;;;4197718;28;20048;-81
2023/10/03 02:13:42;;;;;;;33.80;13.38;;;17.60;99.90;;;;;;4197424;28;20583;-81
2023/10/03 02:15:51;;;;;;;33.45;12.05;;;17.50;99.90;;;;;;4214836;28;20122;-81
2023/10/03 02:17:53;;;;;;;36.45;13.15;;;17.60;99.90;;;;;;4197348;28;20497;-80
2023/10/03 02:19:54;;;;;;;34.55;12.95;;;17.40;99.90;;;;;;4215575;28;20127;-81
2023/10/03 02:21:59;;;;;;;34.42;13.82;;;17.60;99.90;;;;;;4215462;28;20058;-81
2023/10/03 02:24:00;;;;;;;33.50;12.63;;;17.30;99.90;;;;;;4215413;28;20497;-81
2023/10/03 02:26:10;;;;;;;36.22;14.18;;;17.60;99.90;;;;;;4215390;28;20097;-81
2023/10/03 02:28:13;;;;;;;31.98;11.48;;;17.50;99.90;;;;;;4214849;28;20050;-81
2023/10/03 02:30:19;;;;;;;30.98;11.88;;;17.30;99.90;;;;;;4215126;28;20056;-81
2023/10/03 02:32:20;;;;;;;35.38;13.25;;;17.50;99.90;;;;;;4197086;28;20052;-81
2023/10/03 02:34:21;;;;;;;30.40;12.60;;;17.70;99.90;;;;;;4215307;28;20055;-81
2023/10/03 02:36:22;;;;;;;29.90;12.68;;;17.60;99.90;;;;;;4215371;28;20051;-81
2023/10/03 02:38:29;;;;;;;34.00;12.15;;;17.50;99.90;;;;;;4215298;28;20056;-81
2023/10/03 02:40:32;;;;;;;30.70;10.85;;;17.70;99.90;;;;;;4214562;28;20408;-81
2023/10/03 02:42:38;;;;;;;32.03;12.55;;;17.70;99.90;;;;;;4196971;28;20521;-81
2023/10/03 02:44:39;;;;;;;30.98;12.57;;;17.60;99.90;;;;;;4214100;28;20043;-81
2023/10/03 02:46:40;;;;;;;28.77;11.93;;;17.50;99.90;;;;;;4215024;28;20040;-81
2023/10/03 02:48:41;;;;;;;29.90;10.68;;;17.70;99.90;;;;;;4214454;28;20044;-81
2023/10/03 02:50:47;;;;;;;25.92;11.02;;;17.80;99.90;;;;;;4213583;28;20052;-81
2023/10/03 02:52:48;;;;;;;28.50;10.32;;;17.80;99.90;;;;;;4214676;28;20080;-81
2023/10/03 02:54:49;;;;;;;31.02;11.68;;;17.70;99.90;;;;;;4214930;28;20382;-81
2023/10/03 02:56:49;;;;;;;27.75;10.50;;;17.70;99.90;;;;;;4214336;28;20047;-81
2023/10/03 02:58:50;;;;;;;32.85;11.38;;;17.80;99.90;;;;;;4196754;28;20127;-82
2023/10/03 03:00:55;;;;;;;32.03;10.90;;;17.80;99.90;;;;;;4214811;28;20044;-81
2023/10/03 03:02:56;;;;;;;29.20;10.70;;;17.90;99.90;;;;;;4214700;28;20052;-81
2023/10/03 03:04:59;;;;;;;33.03;10.70;;;18.20;99.90;;;;;;4214294;28;20066;-81
2023/10/03 03:07:04;;;;;;;29.13;10.32;;;17.70;99.90;;;;;;4214532;28;20051;-81
2023/10/03 03:09:07;;;;;;;31.92;11.07;;;18.10;99.90;;;;;;4214732;28;20127;-81
2023/10/03 03:11:08;;;;;;;29.45;10.98;;;18.00;99.90;;;;;;4214700;28;20078;-81
2023/10/03 03:13:13;;;;;;;32.85;10.68;;;18.20;99.90;;;;;;4214160;28;20076;-81
2023/10/03 03:15:23;;;;;;;27.33;10.00;;;18.40;99.90;;;;;;4214621;28;20032;-81
2023/10/03 03:17:25;;;;;;;33.50;9.57;;;18.40;99.90;;;;;;4214673;28;20059;-81
2023/10/03 03:19:27;;;;;;;30.45;10.15;;;18.30;99.90;;;;;;4214364;28;20048;-81
2023/10/03 03:21:32;;;;;;;32.65;11.35;;;18.50;99.90;;;;;;4195885;28;20048;-82
2023/10/03 03:23:36;;;;;;;29.13;10.50;;;18.20;99.90;;;;;;4214315;28;20040;-81
2023/10/03 03:25:37;;;;;;;27.33;9.23;;;18.60;99.90;;;;;;4196484;28;20048;-81
2023/10/03 03:27:41;;;;;;;31.92;12.18;;;18.20;99.90;;;;;;4196457;28;20099;-81
2023/10/03 03:29:57;;;;;;;28.17;10.82;;;18.40;99.90;;;;;;4196100;28;20043;-81
2023/10/03 03:31:58;;;;;;;29.30;10.95;;;18.40;99.90;;;;;;4214095;28;20044;-81
2023/10/03 03:34:02;;;;;;;28.65;10.48;;;18.60;99.90;;;;;;4196285;28;20048;-81
2023/10/03 03:36:03;;;;;;;27.83;9.85;;;18.60;99.90;;;;;;4214182;28;20046;-81
2023/10/03 03:38:05;;;;;;;28.60;11.07;;;18.50;99.90;;;;;;4214320;28;20080;-81
2023/10/03 03:40:12;;;;;;;31.23;10.63;;;18.50;99.90;;;;;;4214478;28;20401;-81
2023/10/03 03:42:14;;;;;;;32.00;10.45;;;18.30;99.90;;;;;;4214327;28;20109;-82
2023/10/03 03:44:14;;;;;;;31.67;11.00;;;18.40;99.90;;;;;;4213576;28;20126;-81
2023/10/03 03:46:19;;;;;;;32.78;11.60;;;18.60;99.90;;;;;;4214105;28;20090;-81
2023/10/03 03:48:22;;;;;;;30.83;11.85;;;18.50;99.90;;;;;;4196142;28;20488;-81
2023/10/03 03:50:23;;;;;;;32.67;10.02;;;18.50;99.90;;;;;;4196022;28;20886;-82
2023/10/03 03:52:23;;;;;;;23.02;8.93;;;18.50;99.90;;;;;;4195958;28;20082;-81
2023/10/03 03:54:24;;;;;;;30.88;10.18;;;18.60;99.90;;;;;;4196230;28;20048;-81
2023/10/03 03:56:25;;;;;;;25.35;8.93;;;18.70;99.90;;;;;;4213748;28;20636;-81
2023/10/03 03:58:26;;;;;;;28.02;9.98;;;18.40;99.90;;;;;;4214247;28;20113;-82
2023/10/03 04:00:31;;;;;;;24.13;8.55;;;18.60;99.90;;;;;;4214314;28;20048;-81
2023/10/03 04:02:32;;;;;;;29.55;9.77;;;18.20;99.90;;;;;;4214270;28;20130;-81
2023/10/03 04:04:32;;;;;;;32.85;9.30;;;18.60;99.90;;;;;;4214072;28;20044;-81
2023/10/03 04:06:33;;;;;;;26.48;8.75;;;18.50;99.90;;;;;;4213451;28;20032;-81
2023/10/03 04:08:35;;;;;;;27.52;9.77;;;18.70;99.90;;;;;;4196016;28;20106;-81
2023/10/03 04:10:37;;;;;;;26.05;9.73;;;18.50;99.90;;;;;;4196347;28;20536;-81
2023/10/03 04:12:41;;;;;;;34.45;10.32;;;18.60;99.90;;;;;;4214176;28;20469;-81
2023/10/03 04:14:42;;;;;;;25.08;10.70;;;18.60;99.90;;;;;;4214063;28;20047;-81
2023/10/03 04:16:43;;;;;;;25.83;9.88;;;18.60;99.90;;;;;;4196033;28;20071;-81
2023/10/03 04:18:44;;;;;;;25.42;9.70;;;18.70;99.90;;;;;;4212420;28;20119;-81
2023/10/03 04:20:46;;;;;;;23.73;9.23;;;18.50;99.90;;;;;;4212875;28;20047;-81
2023/10/03 04:22:50;;;;;;;30.35;9.95;;;18.40;99.90;;;;;;4196095;28;20127;-81
2023/10/03 04:24:51;;;;;;;26.70;8.60;;;18.50;99.90;;;;;;4213878;28;20071;-81
2023/10/03 04:26:54;;;;;;;23.67;9.50;;;18.50;99.90;;;;;;4214099;28;20101;-81
2023/10/03 04:28:54;;;;;;;29.00;9.70;;;18.70;99.90;;;;;;4213437;28;20127;-81
2023/10/03 04:30:55;;;;;;;28.05;10.13;;;18.60;99.90;;;;;;4213879;28;20036;-81
2023/10/03 04:32:57;;;;;;;21.80;8.70;;;18.60;99.90;;;;;;4213381;28;20040;-81
2023/10/03 04:34:58;;;;;;;28.08;8.95;;;18.40;99.90;;;;;;4195882;28;20036;-81
2023/10/03 04:36:59;;;;;;;25.30;8.88;;;18.70;99.90;;;;;;4213573;28;20132;-81
2023/10/03 04:39:01;;;;;;;29.70;8.43;;;18.70;99.90;;;;;;4213577;28;20408;-81
2023/10/03 04:41:02;;;;;;;24.75;8.93;;;18.60;99.90;;;;;;4213827;28;20048;-81
2023/10/03 04:43:15;;;;;;;27.20;8.82;;;18.80;99.90;;;;;;4195181;28;20049;-80
2023/10/03 04:45:19;;;;;;;21.92;8.82;;;18.60;99.90;;;;;;4213461;28;20041;-80
2023/10/03 04:47:22;;;;;;;26.52;8.60;;;18.60;99.90;;;;;;4213498;28;20051;-81
2023/10/03 04:49:22;;;;;;;28.70;9.50;;;18.80;99.90;;;;;;4213567;28;20036;-81
2023/10/03 04:51:23;;;;;;;24.75;9.18;;;18.60;99.90;;;;;;4213721;28;20036;-81
2023/10/03 04:53:24;;;;;;;25.05;8.93;;;18.80;99.90;;;;;;4213414;28;20115;-80
2023/10/03 04:55:25;;;;;;;22.88;8.48;;;18.90;99.90;;;;;;4195402;28;20391;-80
2023/10/03 04:57:28;;;;;;;27.88;9.00;;;18.90;99.90;;;;;;4195655;28;20040;-80
2023/10/03 04:59:28;;;;;;;25.23;8.73;;;19.20;99.90;;;;;;4213715;28;20085;-80
2023/10/03 05:01:29;;;;;;;26.75;8.60;;;18.80;99.90;;;;;;4213687;28;20122;-80
2023/10/03 05:03:30;;;;;;;24.25;8.50;;;18.90;99.90;;;;;;4213341;28;20047;-80
2023/10/03 05:05:32;;;;;;;27.85;9.85;;;19.00;99.90;;;;;;4213358;28;20385;-80
2023/10/03 05:07:33;;;;;;;26.50;8.45;;;19.10;99.90;;;;;;4214672;28;20507;-80
2023/10/03 05:09:33;;;;;;;26.63;8.63;;;19.10;99.90;;;;;;4216170;28;20105;-80
2023/10/03 05:11:34;;;;;;;28.35;9.13;;;18.80;99.90;;;;;;4216490;28;20044;-80
2023/10/03 05:13:36;;;;;;;28.65;10.13;;;18.80;99.90;;;;;;4198553;28;20044;-80
2023/10/03 05:15:37;;;;;;;31.73;9.77;;;19.10;99.90;;;;;;4216565;28;20488;-80
2023/10/03 05:17:38;;;;;;;21.33;8.95;;;19.00;99.90;;;;;;4215951;28;20067;-80
2023/10/03 05:19:41;;;;;;;24.55;9.32;;;19.10;99.90;;;;;;4216456;28;20036;-80
2023/10/03 05:21:43;;;;;;;24.73;8.98;;;19.00;99.90;;;;;;4198356;28;20545;-80
2023/10/03 05:23:44;;;;;;;24.80;9.13;;;19.00;99.90;;;;;;4216466;28;20083;-80
2023/10/03 05:25:44;;;;;;;31.65;9.48;;;19.20;99.90;;;;;;4216278;28;20047;-80
2023/10/03 05:27:49;;;;;;;27.85;8.27;;;19.00;99.90;;;;;;4215874;28;20044;-80
2023/10/03 05:29:51;;;;;;;23.20;9.07;;;19.00;99.90;;;;;;4216382;28;20487;-80
2023/10/03 05:31:52;;;;;;;25.48;9.20;;;19.10;99.90;;;;;;4215950;28;20052;-80
2023/10/03 05:33:53;;;;;;;20.65;9.02;;;18.90;99.90;;;;;;4215929;28;20357;-80
2023/10/03 05:35:54;;;;;;;21.50;8.10;;;19.10;99.90;;;;;;4215901;28;20064;-80
2023/10/03 05:37:55;;;;;;;24.02;8.23;;;19.10;99.90;;;;;;4215789;28;20051;-80
2023/10/03 05:39:57;;;;;;;28.00;8.85;;;19.10;99.90;;;;;;4216144;28;20043;-80
2023/10/03 05:42:00;;;;;;;28.42;9.57;;;19.00;99.90;;;;;;4216284;28;20097;-80
2023/10/03 05:44:00;;;;;;;22.55;8.40;;;19.10;99.90;;;;;;4216025;28;20430;-80
2023/10/03 05:46:04;;;;;;;26.63;9.50;;;19.20;99.90;;;;;;4197948;28;20170;-80
2023/10/03 05:48:05;;;;;;;21.08;8.52;;;19.40;99.90;;;;;;4215555;28;20079;-80
2023/10/03 05:50:07;;;;;;;36.58;9.18;;;19.30;99.90;;;;;;4197753;28;20044;-80
2023/10/03 05:52:08;;;;;;;25.75;9.07;;;19.20;99.90;;;;;;4215802;28;20055;-80
2023/10/03 05:54:09;;;;;;;22.33;9.18;;;19.20;99.90;;;;;;4215376;28;20044;-80
2023/10/03 05:56:10;;;;;;;29.60;10.32;;;19.30;99.90;;;;;;4215761;28;20061;-80
2023/10/03 05:58:11;;;;;;;30.23;9.65;;;19.30;99.90;;;;;;4215753;28;20036;-81
2023/10/03 06:00:17;;;;;;;31.30;9.40;;;19.30;99.90;;;;;;4215772;28;20040;-80
2023/10/03 06:02:17;;;;;;;30.17;9.20;;;19.40;99.90;;;;;;4215329;28;20392;-81
2023/10/03 06:04:18;;;;;;;24.25;8.48;;;19.40;99.90;;;;;;4215957;28;20077;-81
2023/10/03 06:06:21;;;;;;;23.35;8.52;;;19.30;99.90;;;;;;4215834;28;20044;-80
2023/10/03 06:08:21;;;;;;;28.85;9.82;;;19.60;99.90;;;;;;4215388;28;20217;-80
2023/10/03 06:10:22;;;;;;;24.05;8.93;;;19.40;99.90;;;;;;4215651;28;20479;-80
2023/10/03 06:12:23;;;;;;;29.15;10.13;;;19.40;99.90;;;;;;4197603;28;20123;-80
2023/10/03 06:14:24;;;;;;;30.30;9.73;;;19.40;99.90;;;;;;4215491;28;20119;-80
2023/10/03 06:16:28;;;;;;;28.02;8.93;;;19.20;99.90;;;;;;4215455;28;20047;-80
2023/10/03 06:18:28;;;;;;;26.58;10.82;;;19.40;99.90;;;;;;4215252;28;20602;-80
2023/10/03 06:20:30;;;;;;;28.80;9.30;;;19.40;99.90;;;;;;4215574;28;20052;-80
2023/10/03 06:22:33;;;;;;;30.75;10.18;;;19.30;99.90;;;;;;4215550;28;20044;-80
2023/10/03 06:24:34;;;;;;;25.13;8.15;;;19.30;99.90;;;;;;4215738;28;20110;-80
2023/10/03 06:26:34;;;;;;;25.15;8.52;;;19.30;99.90;;;;;;4214065;28;20041;-80
2023/10/03 06:28:35;;;;;;;23.67;7.88;;;19.30;99.90;;;;;;4215817;28;20039;-80
2023/10/03 06:30:40;;;;;;;21.67;7.80;;;19.40;99.90;;;;;;4197172;28;20131;-80
2023/10/03 06:32:41;;;;;;;25.83;8.20;;;19.40;99.90;;;;;;4215212;28;20093;-80
2023/10/03 06:34:43;;;;;;;27.02;10.02;;;19.40;99.90;;;;;;4215139;28;20511;-80
2023/10/03 06:36:44;;;;;;;17.33;6.57;;;19.40;99.90;;;;;;4215184;28;20048;-80
2023/10/03 06:38:44;;;;;;;24.20;8.60;;;19.40;99.90;;;;;;4213770;28;20051;-80
2023/10/03 06:40:46;;;;;;;26.35;9.48;;;19.40;99.90;;;;;;4214861;28;20404;-82
2023/10/03 06:42:46;;;;;;;24.67;8.23;;;19.40;99.90;;;;;;4197241;28;20044;-80
2023/10/03 06:44:47;;;;;;;20.98;8.00;;;19.40;99.90;;;;;;4213630;28;20043;-80
2023/10/03 06:46:48;;;;;;;19.15;7.72;;;19.30;99.90;;;;;;4214544;28;20048;-80
2023/10/03 06:48:52;;;;;;;24.73;8.77;;;19.30;99.90;;;;;;4214767;28;20377;-80
2023/10/03 06:50:53;;;;;;;28.52;8.82;;;19.30;99.90;;;;;;4214674;28;20060;-80
2023/10/03 06:52:53;;;;;;;25.55;8.27;;;19.30;99.90;;;;;;4215126;28;20048;-80
2023/10/03 06:54:54;;;;;;;22.13;8.23;;;19.20;99.90;;;;;;4196936;28;20047;-80
2023/10/03 06:56:55;;;;;;;27.67;8.98;;;19.10;99.90;;;;;;4214818;28;20072;-80
2023/10/03 06:58:56;;;;;;;20.50;7.05;;;19.00;99.90;;;;;;4196627;28;20055;-80
2023/10/03 07:00:57;;;;;;;23.92;9.02;;;19.00;99.90;;;;;;4214557;28;20043;-80
2023/10/03 07:02:58;;;;;;;23.90;7.03;;;18.90;99.90;;;;;;4214749;28;20032;-80
2023/10/03 07:05:00;;;;;;;17.85;6.57;;;18.80;99.90;;;;;;4214188;28;20485;-81
2023/10/03 07:07:02;;;;;;;18.10;6.82;;;18.80;99.90;;;;;;4214792;28;20044;-80
2023/10/03 07:09:07;;;;;;;20.02;6.53;;;18.80;99.90;;;;;;4196682;28;20091;-80
2023/10/03 07:11:12;;;;;;;20.90;5.53;;;18.70;99.90;;;;;;4214788;28;20071;-80
2023/10/03 07:13:13;;;;;;;15.27;6.15;;;18.60;99.90;;;;;;4214567;28;20040;-81
2023/10/03 07:15:14;;;;;;;16.33;5.82;;;18.60;99.90;;;;;;4214756;28;20065;-80
2023/10/03 07:17:15;;;;;;;19.48;5.07;;;18.60;99.90;;;;;;4196079;28;20149;-81
2023/10/03 07:19:15;;;;;;;14.15;6.05;;;18.50;99.90;;;;;;4214371;28;20508;-80
2023/10/03 07:21:16;;;;;;;14.10;5.70;;;18.50;99.90;;;;;;4214553;28;20048;-80
2023/10/03 07:23:19;;;;;;;17.45;5.60;;;18.50;99.90;;;;;;4214681;28;20054;-80
2023/10/03 07:25:20;;;;;;;22.13;7.13;;;18.40;99.90;;;;;;4214321;28;20058;-80
2023/10/03 07:27:21;;;;;;;18.48;6.82;;;18.40;99.90;;;;;;4214625;28;20126;-80
2023/10/03 07:29:22;;;;;;;18.58;6.72;;;18.40;99.90;;;;;;4214156;28;20069;-80
2023/10/03 07:31:22;;;;;;;17.85;6.03;;;18.40;99.90;;;;;;4213633;28;20039;-81
2023/10/03 07:33:23;;;;;;;26.98;6.38;;;18.40;99.90;;;;;;4214470;28;20044;-80
2023/10/03 07:35:24;;;;;;;16.45;5.78;;;18.40;99.90;;;;;;4214489;28;20119;-80
2023/10/03 07:37:25;;;;;;;17.08;5.10;;;18.40;99.90;;;;;;4214557;28;20032;-81
2023/10/03 07:39:26;;;;;;;19.42;4.60;;;18.30;99.90;;;;;;4214175;28;20043;-81
2023/10/03 07:41:28;;;;;;;19.50;4.93;;;18.20;99.90;;;;;;4196458;28;20593;-80
2023/10/03 07:43:28;;;;;;;24.40;5.57;;;18.20;99.90;;;;;;4213725;28;20040;-81
2023/10/03 07:45:29;;;;;;;15.45;4.40;;;18.10;99.90;;;;;;4214248;28;20062;-80
2023/10/03 07:47:30;;;;;;;20.98;4.28;;;18.10;99.90;;;;;;4214150;28;20054;-81
2023/10/03 07:49:33;;;;;;;14.65;3.72;;;18.10;99.90;;;;;;4196016;28;20131;-81
2023/10/03 07:51:34;;;;;;;17.50;3.35;;;18.00;99.90;;;;;;4213679;28;20055;-80
2023/10/03 07:53:36;;;;;;;16.45;4.18;;;18.00;99.90;;;;;;4213892;28;20036;-80
2023/10/03 07:55:39;;;;;;;12.02;3.58;;;17.90;99.90;;;;;;4214253;28;20500;-81
2023/10/03 07:57:41;;;;;;;18.55;3.78;;;17.90;99.90;;;;;;4214269;28;20048;-80
2023/10/03 07:59:43;;;;;;;20.15;4.18;;;17.80;99.90;;;;;;4213698;28;20040;-80
2023/10/03 08:01:44;;;;;;;14.07;2.25;;;17.80;99.90;;;;;;4196187;28;20044;-80
2023/10/03 08:03:45;;;;;;;13.60;3.13;;;17.70;99.90;;;;;;4196311;28;20089;-80
2023/10/03 08:05:46;;;;;;;12.95;2.72;;;17.70;99.90;;;;;;4213958;28;20040;-80
2023/10/03 08:07:48;;;;;;;7.65;1.70;;;17.70;99.90;;;;;;4213390;28;20585;-80
2023/10/03 08:09:49;;;;;;;10.93;2.15;;;17.60;99.90;;;;;;4196163;28;20044;-80
2023/10/03 08:11:52;;;;;;;7.70;1.92;;;17.60;99.90;;;;;;4214068;28;20515;-80
2023/10/03 08:13:54;;;;;;;8.00;1.70;;;17.60;99.90;;;;;;4214015;28;20044;-80
2023/10/03 08:15:55;;;;;;;9.02;1.73;;;17.60;99.90;;;;;;4214062;28;20515;-80
2023/10/03 08:17:57;;;;;;;10.75;1.42;;;17.50;99.90;;;;;;4214019;28;20043;-80
2023/10/03 08:20:04;;;;;;;8.10;1.88;;;17.50;99.90;;;;;;4213589;28;20491;-80
2023/10/03 08:22:12;;;;;;;11.05;2.42;;;17.40;99.90;;;;;;4213966;28;20050;-80
2023/10/03 08:24:14;;;;;;;7.65;1.08;;;17.40;99.90;;;;;;4213681;28;20059;-80
2023/10/03 08:26:15;;;;;;;11.63;1.50;;;17.40;99.90;;;;;;4196038;28;20116;-80
2023/10/03 08:28:20;;;;;;;13.05;1.30;;;17.40;99.90;;;;;;4213757;28;20051;-80
2023/10/03 08:30:29;;;;;;;8.60;1.90;;;17.40;99.90;;;;;;4214029;28;20047;-80
2023/10/03 08:32:31;;;;;;;7.43;1.88;;;17.30;99.90;;;;;;4213394;28;20481;-81
2023/10/03 08:34:32;;;;;;;9.25;1.25;;;17.30;99.90;;;;;;4214034;28;20051;-81
2023/10/03 08:36:37;;;;;;;10.15;1.02;;;17.30;99.90;;;;;;4196061;28;20040;-80
2023/10/03 08:38:43;;;;;;;9.63;1.80;;;17.30;99.90;;;;;;4213959;28;20510;-81
2023/10/03 08:40:50;;;;;;;7.75;0.80;;;17.30;99.90;;;;;;4213970;28;20083;-81
2023/10/03 08:42:55;;;;;;;11.50;2.33;;;17.30;99.90;;;;;;4216995;28;20386;-81
2023/10/03 08:44:59;;;;;;;6.45;0.60;;;17.40;99.90;;;;;;4217442;28;20119;-81
2023/10/03 08:47:01;;;;;;;8.43;1.58;;;17.30;99.90;;;;;;4217290;28;20369;-81
2023/10/03 08:49:08;;;;;;;6.47;1.08;;;17.50;99.90;;;;;;4216937;28;20047;-81
2023/10/03 08:51:13;;;;;;;5.88;1.10;;;17.60;99.90;;;;;;4217080;28;20056;-81
2023/10/03 08:53:18;;;;;;;5.07;0.70;;;17.50;99.90;;;;;;4217100;28;20039;-80
2023/10/03 08:55:19;;;;;;;4.57;1.25;;;17.50;99.90;;;;;;4216931;28;20097;-81
2023/10/03 08:57:23;;;;;;;4.50;0.63;;;17.60;99.90;;;;;;4216948;28;20488;-80
2023/10/03 08:59:24;;;;;;;3.20;0.73;;;17.50;99.90;;;;;;4216789;28;20052;-81
2023/10/03 09:01:25;;;;;;;5.30;0.55;;;17.40;99.90;;;;;;4216877;28;20115;-81
2023/10/03 09:03:47;;;;;;;6.40;0.65;;;17.30;99.90;;;;;;4216910;28;20047;-80
2023/10/03 09:05:48;;;;;;;7.35;1.25;;;17.20;99.90;;;;;;4216099;28;20048;-80
2023/10/03 09:07:50;;;;;;;3.78;0.80;;;17.10;99.90;;;;;;4216677;28;20044;-80
2023/10/03 09:09:53;;;;;;;3.80;0.60;;;17.10;99.90;;;;;;4216439;28;20052;-81
2023/10/03 09:11:59;;;;;;;4.13;0.50;;;17.10;99.90;;;;;;4216615;28;20048;-80
2023/10/03 09:14:01;;;;;;;3.22;0.68;;;17.00;99.90;;;;;;4216674;28;20449;-81
2023/10/03 09:16:07;;;;;;;3.53;0.68;;;17.00;99.90;;;;;;4216618;28;20484;-80
2023/10/03 09:18:10;;;;;;;7.22;0.80;;;17.00;99.90;;;;;;4216132;28;20040;-80
2023/10/03 09:20:20;;;;;;;4.50;0.47;;;16.90;99.90;;;;;;4216730;28;20051;-80
2023/10/03 09:22:30;;;;;;;5.35;0.35;;;16.90;99.90;;;;;;4216559;28;20070;-80
2023/10/03 09:24:43;;;;;;;5.90;0.40;;;16.80;99.90;;;;;;4198490;28;20049;-80
2023/10/03 09:26:51;;;;;;;4.97;1.38;;;16.80;99.90;;;;;;4216389;28;20047;-80
2023/10/03 09:28:52;;;;;;;3.60;0.43;;;16.80;99.90;;;;;;4197884;28;20552;-80
2023/10/03 09:30:54;;;;;;;6.82;0.82;;;16.70;99.90;;;;;;4216302;28;20129;-80
2023/10/03 09:32:55;;;;;;;5.45;0.50;;;16.70;99.90;;;;;;4216165;28;20119;-80
2023/10/03 09:35:09;;;;;;;4.20;0.47;;;16.70;99.90;;;;;;4216175;28;20047;-81
2023/10/03 09:37:11;;;;;;;1.15;0.30;;;16.70;99.90;;;;;;4216357;28;20119;-80
2023/10/03 09:39:20;;;;;;;2.80;0.82;;;16.70;99.90;;;;;;4215843;28;20507;-80
2023/10/03 09:41:21;;;;;;;1.58;0.30;;;16.70;99.90;;;;;;4216104;28;20040;-80
2023/10/03 09:43:28;;;;;;;1.75;0.30;;;16.70;99.90;;;;;;4197622;28;20048;-80
2023/10/03 09:45:31;;;;;;;4.22;0.50;;;16.60;99.90;;;;;;4197884;28;20088;-81
2023/10/03 09:47:31;;;;;;;5.38;0.50;;;16.60;99.90;;;;;;4215915;28;20047;-80
2023/10/03 09:49:38;;;;;;;0.93;0.30;;;16.60;99.90;;;;;;4215609;28;20504;-81
2023/10/03 09:51:51;;;;;;;2.20;0.25;;;16.50;99.90;;;;;;4215940;28;20044;-80
2023/10/03 09:53:53;;;;;;;3.97;0.30;;;16.40;99.90;;;;;;4215371;28;20048;-80
2023/10/03 09:55:56;;;;;;;0.88;0.28;;;16.40;99.90;;;;;;4198714;28;20398;-80
2023/10/03 09:57:59;;;;;;;3.95;1.48;;;16.30;99.90;;;;;;4215785;28;20566;-80
2023/10/03 10:00:00;;;;;;;2.58;0.20;;;16.30;99.90;;;;;;4216313;28;20515;-80
2023/10/03 10:02:02;;;;;;;1.23;0.40;;;16.30;99.90;;;;;;4216471;28;20047;-80
2023/10/03 10:04:07;;;;;;;3.33;0.28;;;16.30;99.90;;;;;;4219598;28;20043;-79
2023/10/03 10:06:20;;;;;;;0.80;0.30;;;16.30;99.90;;;;;;4235700;28;20065;-80
2023/10/03 10:08:34;;;;;;;6.78;0.32;;;16.20;99.90;;;;;;4236147;28;20067;-80
2023/10/03 10:10:37;;;;;;;2.08;0.40;;;16.20;99.90;;;;;;4219307;28;20066;-80
2023/10/03 10:13:04;;;;;;;3.40;0.20;;;16.10;99.90;;;;;;4236678;28;20024;-80
2023/10/03 10:17:16;;;;;;;3.92;0.40;;;16.00;99.90;;;;;;4215848;28;20048;-80
2023/10/03 10:19:18;;;;;;;2.08;0.35;;;16.00;99.90;;;;;;4215991;28;20066;-80
2023/10/03 10:21:22;;;;;;;6.50;1.05;;;16.00;99.90;;;;;;4215756;28;20083;-80
2023/10/03 10:23:24;;;;;;;3.30;0.50;;;16.00;99.90;;;;;;4215909;28;20545;-80
2023/10/03 10:25:30;;;;;;;2.80;0.57;;;16.00;99.90;;;;;;4215810;28;20099;-80
2023/10/03 10:27:31;;;;;;;2.20;0.50;;;16.00;99.90;;;;;;4216079;28;20464;-80
2023/10/03 10:29:35;;;;;;;5.25;0.50;;;16.00;99.90;;;;;;4216398;28;20040;-80
2023/10/03 10:31:38;;;;;;;4.13;0.60;;;16.00;99.90;;;;;;4214919;28;20522;-80
2023/10/03 10:33:39;;;;;;;4.75;0.57;;;16.00;99.90;;;;;;4216173;28;20051;-81